Drummond Island, MI

3:47 PM EDT on July 30, 2015 (GMT -0400)
Potagannissing Bay Front | | Change Station
CLOSE
Current Station
Personal Weather Station
Location: Drummond Island, MI
Elevation: 587 ft
Nearby Weather Stations

Elev 587 ft 46.06 °N, 83.67 °W | Updated 3 seconds ago

Scattered Clouds
Scattered Clouds
68.7 °F
Feels Like 68.7 °F
N
18.0
Wind Variable Wind from NW
Gusts 26.0 mph

Today
High -- | Low -- °F
--% Chance of Precip.
Yesterday
High -- | Low -- °F
Precip. -- in
6:14 AM 9:07 PM
Waxing Gibbous, 99% visible
Pressure 29.83 in
Visibility 10.0 miles
Clouds Scattered Clouds 6000 ft
Dew Point 57 °F
Humidity 66%
Rainfall 0.05 in
Snow Depth Not available.
UV 7 out of 12
Pollen 7.10 out of 12
Air Quality Not available.
Flu Activity Not available.
METAR KDRM 301934Z AUTO 32011G16KT 10SM SCT060 23/12 A2983 RMK AO2 T02290120

More Conditions Fewer Conditions

Pressure 29.83 in
Visibility 10.0 miles
Clouds Scattered Clouds 6000 ft
Dew Point 57 °F
Humidity 66%
Rainfall 0.05 in
Snow Depth Not available.
UV 7 out of 12
Pollen 7.10 out of 12
Air Quality Not available.
Flu Activity Not available.
METAR KDRM 301934Z AUTO 32011G16KT 10SM SCT060 23/12 A2983 RMK AO2 T02290120

More Conditions Fewer Conditions

Nowcast | as of 3:00 PM EDT on July 30, 2015

At 4 PM...mostly cloudy. Temperature 70. Northwest winds 21 mph. At 6 PM...mostly cloudy. Temperature 69. Northwest winds 16 mph. At 8 PM...mostly cloudy. Temperature 67. West winds 7 mph. At 10 PM...partly cloudy. Temperature 64. West winds 5 mph.

×

10-Day Weather Forecast

×

Almanac

Astronomy

Jul. 30, 2015 Rise Set
Actual Time
Civil Twilight
Nautical Twilight
Astronomical Twilight
Moon
Length of Visible Light
Length of Day
Tomorrow will be .
, % of the Moon is Illuminated

Today's Extremes

State Highs State Lows

Community

WunderPhotos

Upload Photos

1,842,486 photos uploaded!

WunderBlogs® & News

Nearby

Air Quality

  Air Quality AQ Index Pollutant
Not available.

Snow Depth

Station Depth Elevation

Earthquake Activity

City Distance Mag. Time & Date
Minimum magnitude displayed is 2.5.

Coastal Water Temperatures

Place Temperature

Stations

Nearby Weather Stations

Station Location Temp. Windchill Dew Point Humidity Wind Precip. Elev Updated Type